Terminal Aerodrome Forecast
Issued by NWS Shreveport, LA

Home | Current Version | Previous Version | Text Only | Print | Product List | Glossary On
Versions: 1 2 3 4 5 6 7 8 9 10 11 12 13 14 15 16 17 18 19 20
000
FTUS44 KSHV 071720
TAFLFK
TAF
KLFK 071720Z 0718/0818 18012KT P6SM VCSH SCT040 SCT250
     FM080000 16008KT P6SM SCT050 SCT250
      TEMPO 0808/0810 5SM BR BKN015
     FM081000 15006KT 5SM BR BKN008
     FM081400 17010KT P6SM BKN015
     FM081600 18012G18KT P6SM SCT035 SCT250=

USA.gov is the U.S. government's official web portal to all federal, state and local government web resources and services.